Maersk Wllemstadt — 3FTJ8 — position and weather

sailwx.info

Track history (hours):
 
Tides and Currents Weather Stations Pressure Air Temp Water Temp Dewpoint Dewpoint Depression Visibility Wind Speed Wind Dir Waves Ship Positions

Maersk Wllemstadt

Last reported at 2018-Jun-09 19:44 UTC. Time now 2018-Jun-23 10:23 UTC.
Position N 10°24' W 075°32'.
Warning: this ship's position is 13 days out of date.

Length 171 m; draft 8.2 m.

Type: Cargo ship. MMSI: 370209000.

Date/timePositionNaut miles runAvg speedWind from/ knotsBaromVisibWave heightAir tempDewpointWater temp
2018-Jun-09 19:44N 10°24' W 075°32'3 9.4
2018-Jun-09 19:28N 10°21' W 075°32'5 9.8
2018-Jun-09 19:00N 10°19' W 075°36'64 8.5
2018-Jun-09 11:31N 11°02' W 074°48'212.6
2018-Jun-09 11:21N 11°01' W 074°46'3 1.3
2018-Jun-09 09:13N 10°58' W 074°46'0 0.0
2018-Jun-09 08:52N 10°58' W 074°46'0 0.0
2018-Jun-09 08:10N 10°58' W 074°46'0 0.0
2018-Jun-09 07:49N 10°58' W 074°46'0 0.0
2018-Jun-09 05:55N 10°58' W 074°46'0 0.0
2018-Jun-09 05:25N 10°58' W 074°46'0 0.0
2018-Jun-09 04:49N 10°58' W 074°46'0 0.0
2018-Jun-09 04:07N 10°58' W 074°46'0 0.0
2018-Jun-09 03:55N 10°58' W 074°46'0 0.0
2018-Jun-09 03:28N 10°58' W 074°46'0 0.0
2018-Jun-09 02:49N 10°58' W 074°46'0 0.0
2018-Jun-09 00:16N 10°58' W 074°46'0 0.0
2018-Jun-08 23:46N 10°58' W 074°46'0 0.0
2018-Jun-08 23:28N 10°58' W 074°46'0 0.0
2018-Jun-08 20:49N 10°58' W 074°46'0 0.0
2018-Jun-08 20:22N 10°58' W 074°46'0 0.0
2018-Jun-08 19:55N 10°58' W 074°46'0 0.0
2018-Jun-08 19:25N 10°58' W 074°46'0 0.0
2018-Jun-08 17:01N 10°58' W 074°46'0 0.0
2018-Jun-08 15:13N 10°58' W 074°46'0 0.0
2018-Jun-08 14:49N 10°58' W 074°46'0 0.0
2018-Jun-08 14:13N 10°58' W 074°46'0 0.2
2018-Jun-08 14:00N 10°58' W 074°45'305 9.7
2018-Jun-07 06:28N 09°38' W 079°45'511.4
2018-Jun-07 06:00N 09°33' W 079°48'611.4
2018-Jun-07 05:30N 09°29' W 079°51'510.3
2018-Jun-07 05:00N 09°24' W 079°54'2 4.2
2018-Jun-07 04:29N 09°22' W 079°53'0 0.0
2018-Jun-07 03:59N 09°22' W 079°53'0 0.0
2018-Jun-07 03:29N 09°22' W 079°53'0 0.0
2018-Jun-07 02:59N 09°22' W 079°53'0 0.0
2018-Jun-07 02:29N 09°22' W 079°53'0 0.0
2018-Jun-07 01:59N 09°22' W 079°53'0 0.0
2018-Jun-07 01:29N 09°22' W 079°53'0 0.0
2018-Jun-07 00:59N 09°22' W 079°53'0 0.0
2018-Jun-07 00:29N 09°22' W 079°53'0 0.0
2018-Jun-06 23:59N 09°22' W 079°53'0 0.0
2018-Jun-06 23:29N 09°22' W 079°53'0 0.0
2018-Jun-06 22:59N 09°22' W 079°53'0 0.0
2018-Jun-06 22:29N 09°22' W 079°53'0 0.0
2018-Jun-06 21:59N 09°22' W 079°53'0 0.0
2018-Jun-06 21:29N 09°22' W 079°53'0 0.0
2018-Jun-06 20:59N 09°22' W 079°53'0 0.0
2018-Jun-06 20:29N 09°22' W 079°53'0 0.0
2018-Jun-06 19:59N 09°22' W 079°53'0 0.0
2018-Jun-06 19:29N 09°22' W 079°53'0 0.0
2018-Jun-06 18:59N 09°22' W 079°53'0 0.0
2018-Jun-06 18:29N 09°22' W 079°53'0 0.0
2018-Jun-06 17:59N 09°22' W 079°53'0 0.0
2018-Jun-06 17:29N 09°22' W 079°53'0 0.5
2018-Jun-06 16:59N 09°22' W 079°53'0 0.7
2018-Jun-06 16:30N 09°22' W 079°53'0 0.0
2018-Jun-06 16:00N 09°22' W 079°53'0 0.0
2018-Jun-06 15:30N 09°22' W 079°53'0 0.0
2018-Jun-06 15:00N 09°22' W 079°53'0 0.0
2018-Jun-06 14:30N 09°22' W 079°53'0 0.0
2018-Jun-06 14:00N 09°22' W 079°53'0 0.0
2018-Jun-06 13:30N 09°22' W 079°53'0 0.0
2018-Jun-06 13:00N 09°22' W 079°53'0 0.0
2018-Jun-06 12:30N 09°22' W 079°53'0 0.0
2018-Jun-06 12:00N 09°22' W 079°53'0 0.0
2018-Jun-06 11:30N 09°22' W 079°53'0 0.0
2018-Jun-06 11:00N 09°22' W 079°53'0 0.0
2018-Jun-06 10:30N 09°22' W 079°53'0 0.0
2018-Jun-06 10:00N 09°22' W 079°53'0 0.0
2018-Jun-06 09:30N 09°22' W 079°53'0 0.0
2018-Jun-06 08:54N 09°22' W 079°53'0 0.0
2018-Jun-06 08:30N 09°22' W 079°53'0 0.0
2018-Jun-06 08:00N 09°22' W 079°53'0 0.0
2018-Jun-06 07:30N 09°22' W 079°53'0 0.0
2018-Jun-06 07:00N 09°22' W 079°53'0 0.0
2018-Jun-06 06:30N 09°22' W 079°53'0 0.0
2018-Jun-06 06:00N 09°22' W 079°53'0 0.0
2018-Jun-06 05:30N 09°22' W 079°53'0 0.0
2018-Jun-06 05:00N 09°22' W 079°53'0 0.0
2018-Jun-06 04:30N 09°22' W 079°53'0 0.0
2018-Jun-06 04:00N 09°22' W 079°53'0 0.0
2018-Jun-06 03:30N 09°22' W 079°53'0 0.0
2018-Jun-06 03:00N 09°22' W 079°53'0 0.0
2018-Jun-06 02:30N 09°22' W 079°53'0 0.0
2018-Jun-06 02:00N 09°22' W 079°53'0 0.0
2018-Jun-06 01:29N 09°22' W 079°53'0 0.0
2018-Jun-06 00:59N 09°22' W 079°53'0 0.0
2018-Jun-06 00:29N 09°22' W 079°53'0 0.0
2018-Jun-05 23:59N 09°22' W 079°53'0 0.0
2018-Jun-05 23:29N 09°22' W 079°53'0 0.0
2018-Jun-05 23:00N 09°22' W 079°53'2 3.0
2018-Jun-05 22:30N 09°23' W 079°54'4 8.9
2018-Jun-05 22:00N 09°28' W 079°53'3 6.6
2018-Jun-05 21:30N 09°31' W 079°52'314 7.8
2018-Jun-04 05:03N 11°01' W 074°47'112.1
2018-Jun-04 05:00N 11°01' W 074°46'3 5.5
2018-Jun-04 04:28N 10°58' W 074°46'0 0.0
2018-Jun-04 03:16N 10°58' W 074°46'0 0.0
2018-Jun-04 02:58N 10°58' W 074°46'0 0.0
2018-Jun-04 02:28N 10°58' W 074°46'0 0.0
2018-Jun-04 01:58N 10°58' W 074°46'0 0.0
2018-Jun-04 01:19N 10°58' W 074°46'0 0.0
2018-Jun-04 00:58N 10°58' W 074°46'0 0.0
2018-Jun-04 00:25N 10°58' W 074°46'0 0.0
2018-Jun-03 19:22N 10°58' W 074°46'0 0.0
2018-Jun-03 18:58N 10°58' W 074°46'0 0.0
2018-Jun-03 18:16N 10°58' W 074°46'0 0.0
2018-Jun-03 17:52N 10°58' W 074°46'0 0.0
2018-Jun-03 17:28N 10°58' W 074°46'0 0.0
2018-Jun-03 16:58N 10°58' W 074°46'0 0.0
2018-Jun-03 16:28N 10°58' W 074°46'0 0.0
2018-Jun-03 15:52N 10°58' W 074°46'0 0.0
2018-Jun-03 15:22N 10°58' W 074°46'0 0.0
2018-Jun-03 14:55N 10°58' W 074°46'0 0.0
2018-Jun-03 13:16N 10°58' W 074°46'0 0.0
2018-Jun-03 12:48N 10°58' W 074°46'0 0.4
2018-Jun-03 12:30N 10°58' W 074°45'2 4.0
2018-Jun-03 11:59N 11°00' W 074°46'59 6.3
2018-Jun-03 02:40N 10°34' W 075°39'210.1
2018-Jun-03 02:28N 10°32' W 075°40'510.0
2018-Jun-03 02:00N 10°28' W 075°42'510.1
2018-Jun-03 01:30N 10°23' W 075°44'4 8.0
2018-Jun-03 01:00N 10°21' W 075°41'511.0
2018-Jun-03 00:30N 10°19' W 075°36'510.1
2018-Jun-03 00:00N 10°21' W 075°31'2 3.5
2018-Jun-02 23:28N 10°23' W 075°31'0 0.0
2018-Jun-02 22:58N 10°23' W 075°31'0 0.0
2018-Jun-02 22:28N 10°23' W 075°31'0 0.0
2018-Jun-02 21:58N 10°23' W 075°31'0 0.0
2018-Jun-02 21:28N 10°23' W 075°31'0 0.0
2018-Jun-02 20:58N 10°23' W 075°31'0 0.0
2018-Jun-02 20:28N 10°23' W 075°31'0 0.0
2018-Jun-02 19:58N 10°23' W 075°31'0 0.0
2018-Jun-02 19:28N 10°23' W 075°31'0 0.0
2018-Jun-02 18:58N 10°23' W 075°31'0 0.0
2018-Jun-02 18:28N 10°23' W 075°31'0 0.0
2018-Jun-02 17:58N 10°23' W 075°31'0 0.0
2018-Jun-02 17:28N 10°23' W 075°31'0 0.0
2018-Jun-02 16:58N 10°23' W 075°31'0 0.0
2018-Jun-02 16:28N 10°23' W 075°31'0 0.0
2018-Jun-02 15:58N 10°23' W 075°31'0 0.0
2018-Jun-02 15:28N 10°23' W 075°31'0 0.0
2018-Jun-02 14:58N 10°23' W 075°31'0 0.0
2018-Jun-02 14:28N 10°23' W 075°31'0 0.0
2018-Jun-02 13:58N 10°23' W 075°31'0 0.0
2018-Jun-02 13:28N 10°23' W 075°31'0 0.0
2018-Jun-02 12:58N 10°23' W 075°31'0 0.0
2018-Jun-02 12:28N 10°23' W 075°31'0 0.0
2018-Jun-02 11:58N 10°23' W 075°31'0 0.1
2018-Jun-02 11:28N 10°23' W 075°31'0 0.0
2018-Jun-02 10:58N 10°23' W 075°31'0 0.0
2018-Jun-02 10:29N 10°23' W 075°31'1 1.9
2018-Jun-02 10:00N 10°22' W 075°31'2 3.5
2018-Jun-02 09:30N 10°24' W 075°32'0 0.3
2018-Jun-02 08:57N 10°24' W 075°32'0 0.0
2018-Jun-02 08:27N 10°24' W 075°32'0 0.0
2018-Jun-02 07:57N 10°24' W 075°32'0 0.0
2018-Jun-02 07:30N 10°24' W 075°32'0 0.0
2018-Jun-02 07:00N 10°24' W 075°32'0 0.0
2018-Jun-02 06:30N 10°24' W 075°32'0 0.0
2018-Jun-02 05:57N 10°24' W 075°32'0 0.0
2018-Jun-02 05:30N 10°24' W 075°32'0 0.0
2018-Jun-02 05:00N 10°24' W 075°32'0 0.0
2018-Jun-02 04:30N 10°24' W 075°32'0 0.0
2018-Jun-02 04:00N 10°24' W 075°32'0 0.0
2018-Jun-02 03:27N 10°24' W 075°32'0 0.0
2018-Jun-02 03:00N 10°24' W 075°32'0 0.0
2018-Jun-02 02:27N 10°24' W 075°32'0 0.0
2018-Jun-02 01:57N 10°24' W 075°32'0 0.0
2018-Jun-02 01:27N 10°24' W 075°32'0 0.0
2018-Jun-02 00:57N 10°24' W 075°32'0 0.0
2018-Jun-02 00:27N 10°24' W 075°32'0 0.0
2018-Jun-02 00:00N 10°24' W 075°32'0 0.0
2018-Jun-01 23:30N 10°24' W 075°32'0 0.0
2018-Jun-01 22:57N 10°24' W 075°32'0 0.0
2018-Jun-01 22:30N 10°24' W 075°32'0 0.0
2018-Jun-01 22:00N 10°24' W 075°32'0 0.0
2018-Jun-01 21:28N 10°24' W 075°32'1 2.6
2018-Jun-01 20:59N 10°23' W 075°32'4 8.9
2018-Jun-01 20:29N 10°19' W 075°35'2 3.5
2018-Jun-01 20:00N 10°19' W 075°36'3 6.1
2018-Jun-01 19:28N 10°19' W 075°40'9 1.7
2018-Jun-01 14:23N 10°23' W 075°48'5 7.0
2018-Jun-01 13:37N 10°28' W 075°45'110.8
2018-Jun-01 13:29N 10°29' W 075°45'610.7
2018-Jun-01 12:57N 10°34' W 075°41'510.9
2018-Jun-01 12:28N 10°38' W 075°39'  
Track history (hours):
 
Tides and Currents Weather Stations Pressure Air Temp Water Temp Dewpoint Dewpoint Depression Visibility Wind Speed Wind Dir Waves Ship Positions

Maersk Wllemstadt

Last reported at 2018-Jun-09 19:44 UTC. Time now 2018-Jun-23 10:23 UTC.
Position N 10°24' W 075°32'.
Warning: this ship's position is 13 days out of date.

Length 171 m; draft 8.2 m.

Type: Cargo ship. MMSI: 370209000.

Date/timePositionNaut miles runAvg speedWind from/ knotsBaromVisibWave heightAir tempDewpointWater temp
2018-Jun-09 19:44N 10°24' W 075°32'3 9.4
2018-Jun-09 19:28N 10°21' W 075°32'5 9.8
2018-Jun-09 19:00N 10°19' W 075°36'64 8.5
2018-Jun-09 11:31N 11°02' W 074°48'212.6
2018-Jun-09 11:21N 11°01' W 074°46'3 1.3
2018-Jun-09 09:13N 10°58' W 074°46'0 0.0
2018-Jun-09 08:52N 10°58' W 074°46'0 0.0
2018-Jun-09 08:10N 10°58' W 074°46'0 0.0
2018-Jun-09 07:49N 10°58' W 074°46'0 0.0
2018-Jun-09 05:55N 10°58' W 074°46'0 0.0
2018-Jun-09 05:25N 10°58' W 074°46'0 0.0
2018-Jun-09 04:49N 10°58' W 074°46'0 0.0
2018-Jun-09 04:07N 10°58' W 074°46'0 0.0
2018-Jun-09 03:55N 10°58' W 074°46'0 0.0
2018-Jun-09 03:28N 10°58' W 074°46'0 0.0
2018-Jun-09 02:49N 10°58' W 074°46'0 0.0
2018-Jun-09 00:16N 10°58' W 074°46'0 0.0
2018-Jun-08 23:46N 10°58' W 074°46'0 0.0
2018-Jun-08 23:28N 10°58' W 074°46'0 0.0
2018-Jun-08 20:49N 10°58' W 074°46'0 0.0
2018-Jun-08 20:22N 10°58' W 074°46'0 0.0
2018-Jun-08 19:55N 10°58' W 074°46'0 0.0
2018-Jun-08 19:25N 10°58' W 074°46'0 0.0
2018-Jun-08 17:01N 10°58' W 074°46'0 0.0
2018-Jun-08 15:13N 10°58' W 074°46'0 0.0
2018-Jun-08 14:49N 10°58' W 074°46'0 0.0
2018-Jun-08 14:13N 10°58' W 074°46'0 0.2
2018-Jun-08 14:00N 10°58' W 074°45'305 9.7
2018-Jun-07 06:28N 09°38' W 079°45'511.4
2018-Jun-07 06:00N 09°33' W 079°48'611.4
2018-Jun-07 05:30N 09°29' W 079°51'510.3
2018-Jun-07 05:00N 09°24' W 079°54'2 4.2
2018-Jun-07 04:29N 09°22' W 079°53'0 0.0
2018-Jun-07 03:59N 09°22' W 079°53'0 0.0
2018-Jun-07 03:29N 09°22' W 079°53'0 0.0
2018-Jun-07 02:59N 09°22' W 079°53'0 0.0
2018-Jun-07 02:29N 09°22' W 079°53'0 0.0
2018-Jun-07 01:59N 09°22' W 079°53'0 0.0
2018-Jun-07 01:29N 09°22' W 079°53'0 0.0
2018-Jun-07 00:59N 09°22' W 079°53'0 0.0
2018-Jun-07 00:29N 09°22' W 079°53'0 0.0
2018-Jun-06 23:59N 09°22' W 079°53'0 0.0
2018-Jun-06 23:29N 09°22' W 079°53'0 0.0
2018-Jun-06 22:59N 09°22' W 079°53'0 0.0
2018-Jun-06 22:29N 09°22' W 079°53'0 0.0
2018-Jun-06 21:59N 09°22' W 079°53'0 0.0
2018-Jun-06 21:29N 09°22' W 079°53'0 0.0
2018-Jun-06 20:59N 09°22' W 079°53'0 0.0
2018-Jun-06 20:29N 09°22' W 079°53'0 0.0
2018-Jun-06 19:59N 09°22' W 079°53'0 0.0
2018-Jun-06 19:29N 09°22' W 079°53'0 0.0
2018-Jun-06 18:59N 09°22' W 079°53'0 0.0
2018-Jun-06 18:29N 09°22' W 079°53'0 0.0
2018-Jun-06 17:59N 09°22' W 079°53'0 0.0
2018-Jun-06 17:29N 09°22' W 079°53'0 0.5
2018-Jun-06 16:59N 09°22' W 079°53'0 0.7
2018-Jun-06 16:30N 09°22' W 079°53'0 0.0
2018-Jun-06 16:00N 09°22' W 079°53'0 0.0
2018-Jun-06 15:30N 09°22' W 079°53'0 0.0
2018-Jun-06 15:00N 09°22' W 079°53'0 0.0
2018-Jun-06 14:30N 09°22' W 079°53'0 0.0
2018-Jun-06 14:00N 09°22' W 079°53'0 0.0
2018-Jun-06 13:30N 09°22' W 079°53'0 0.0
2018-Jun-06 13:00N 09°22' W 079°53'0 0.0
2018-Jun-06 12:30N 09°22' W 079°53'0 0.0
2018-Jun-06 12:00N 09°22' W 079°53'0 0.0
2018-Jun-06 11:30N 09°22' W 079°53'0 0.0
2018-Jun-06 11:00N 09°22' W 079°53'0 0.0
2018-Jun-06 10:30N 09°22' W 079°53'0 0.0
2018-Jun-06 10:00N 09°22' W 079°53'0 0.0
2018-Jun-06 09:30N 09°22' W 079°53'0 0.0
2018-Jun-06 08:54N 09°22' W 079°53'0 0.0
2018-Jun-06 08:30N 09°22' W 079°53'0 0.0
2018-Jun-06 08:00N 09°22' W 079°53'0 0.0
2018-Jun-06 07:30N 09°22' W 079°53'0 0.0
2018-Jun-06 07:00N 09°22' W 079°53'0 0.0
2018-Jun-06 06:30N 09°22' W 079°53'0 0.0
2018-Jun-06 06:00N 09°22' W 079°53'0 0.0
2018-Jun-06 05:30N 09°22' W 079°53'0 0.0
2018-Jun-06 05:00N 09°22' W 079°53'0 0.0
2018-Jun-06 04:30N 09°22' W 079°53'0 0.0
2018-Jun-06 04:00N 09°22' W 079°53'0 0.0
2018-Jun-06 03:30N 09°22' W 079°53'0 0.0
2018-Jun-06 03:00N 09°22' W 079°53'0 0.0
2018-Jun-06 02:30N 09°22' W 079°53'0 0.0
2018-Jun-06 02:00N 09°22' W 079°53'0 0.0
2018-Jun-06 01:29N 09°22' W 079°53'0 0.0
2018-Jun-06 00:59N 09°22' W 079°53'0 0.0
2018-Jun-06 00:29N 09°22' W 079°53'0 0.0
2018-Jun-05 23:59N 09°22' W 079°53'0 0.0
2018-Jun-05 23:29N 09°22' W 079°53'0 0.0
2018-Jun-05 23:00N 09°22' W 079°53'2 3.0
2018-Jun-05 22:30N 09°23' W 079°54'4 8.9
2018-Jun-05 22:00N 09°28' W 079°53'3 6.6
2018-Jun-05 21:30N 09°31' W 079°52'314 7.8
2018-Jun-04 05:03N 11°01' W 074°47'112.1
2018-Jun-04 05:00N 11°01' W 074°46'3 5.5
2018-Jun-04 04:28N 10°58' W 074°46'0 0.0
2018-Jun-04 03:16N 10°58' W 074°46'0 0.0
2018-Jun-04 02:58N 10°58' W 074°46'0 0.0
2018-Jun-04 02:28N 10°58' W 074°46'0 0.0
2018-Jun-04 01:58N 10°58' W 074°46'0 0.0
2018-Jun-04 01:19N 10°58' W 074°46'0 0.0
2018-Jun-04 00:58N 10°58' W 074°46'0 0.0
2018-Jun-04 00:25N 10°58' W 074°46'0 0.0
2018-Jun-03 19:22N 10°58' W 074°46'0 0.0
2018-Jun-03 18:58N 10°58' W 074°46'0 0.0
2018-Jun-03 18:16N 10°58' W 074°46'0 0.0
2018-Jun-03 17:52N 10°58' W 074°46'0 0.0
2018-Jun-03 17:28N 10°58' W 074°46'0 0.0
2018-Jun-03 16:58N 10°58' W 074°46'0 0.0
2018-Jun-03 16:28N 10°58' W 074°46'0 0.0
2018-Jun-03 15:52N 10°58' W 074°46'0 0.0
2018-Jun-03 15:22N 10°58' W 074°46'0 0.0
2018-Jun-03 14:55N 10°58' W 074°46'0 0.0
2018-Jun-03 13:16N 10°58' W 074°46'0 0.0
2018-Jun-03 12:48N 10°58' W 074°46'0 0.4
2018-Jun-03 12:30N 10°58' W 074°45'2 4.0
2018-Jun-03 11:59N 11°00' W 074°46'59 6.3
2018-Jun-03 02:40N 10°34' W 075°39'210.1
2018-Jun-03 02:28N 10°32' W 075°40'510.0
2018-Jun-03 02:00N 10°28' W 075°42'510.1
2018-Jun-03 01:30N 10°23' W 075°44'4 8.0
2018-Jun-03 01:00N 10°21' W 075°41'511.0
2018-Jun-03 00:30N 10°19' W 075°36'510.1
2018-Jun-03 00:00N 10°21' W 075°31'2 3.5
2018-Jun-02 23:28N 10°23' W 075°31'0 0.0
2018-Jun-02 22:58N 10°23' W 075°31'0 0.0
2018-Jun-02 22:28N 10°23' W 075°31'0 0.0
2018-Jun-02 21:58N 10°23' W 075°31'0 0.0
2018-Jun-02 21:28N 10°23' W 075°31'0 0.0
2018-Jun-02 20:58N 10°23' W 075°31'0 0.0
2018-Jun-02 20:28N 10°23' W 075°31'0 0.0
2018-Jun-02 19:58N 10°23' W 075°31'0 0.0
2018-Jun-02 19:28N 10°23' W 075°31'0 0.0
2018-Jun-02 18:58N 10°23' W 075°31'0 0.0
2018-Jun-02 18:28N 10°23' W 075°31'0 0.0
2018-Jun-02 17:58N 10°23' W 075°31'0 0.0
2018-Jun-02 17:28N 10°23' W 075°31'0 0.0
2018-Jun-02 16:58N 10°23' W 075°31'0 0.0
2018-Jun-02 16:28N 10°23' W 075°31'0 0.0
2018-Jun-02 15:58N 10°23' W 075°31'0 0.0
2018-Jun-02 15:28N 10°23' W 075°31'0 0.0
2018-Jun-02 14:58N 10°23' W 075°31'0 0.0
2018-Jun-02 14:28N 10°23' W 075°31'0 0.0
2018-Jun-02 13:58N 10°23' W 075°31'0 0.0
2018-Jun-02 13:28N 10°23' W 075°31'0 0.0
2018-Jun-02 12:58N 10°23' W 075°31'0 0.0
2018-Jun-02 12:28N 10°23' W 075°31'0 0.0
2018-Jun-02 11:58N 10°23' W 075°31'0 0.1
2018-Jun-02 11:28N 10°23' W 075°31'0 0.0
2018-Jun-02 10:58N 10°23' W 075°31'0 0.0
2018-Jun-02 10:29N 10°23' W 075°31'1 1.9
2018-Jun-02 10:00N 10°22' W 075°31'2 3.5
2018-Jun-02 09:30N 10°24' W 075°32'0 0.3
2018-Jun-02 08:57N 10°24' W 075°32'0 0.0
2018-Jun-02 08:27N 10°24' W 075°32'0 0.0
2018-Jun-02 07:57N 10°24' W 075°32'0 0.0
2018-Jun-02 07:30N 10°24' W 075°32'0 0.0
2018-Jun-02 07:00N 10°24' W 075°32'0 0.0
2018-Jun-02 06:30N 10°24' W 075°32'0 0.0
2018-Jun-02 05:57N 10°24' W 075°32'0 0.0
2018-Jun-02 05:30N 10°24' W 075°32'0 0.0
2018-Jun-02 05:00N 10°24' W 075°32'0 0.0
2018-Jun-02 04:30N 10°24' W 075°32'0 0.0
2018-Jun-02 04:00N 10°24' W 075°32'0 0.0
2018-Jun-02 03:27N 10°24' W 075°32'0 0.0
2018-Jun-02 03:00N 10°24' W 075°32'0 0.0
2018-Jun-02 02:27N 10°24' W 075°32'0 0.0
2018-Jun-02 01:57N 10°24' W 075°32'0 0.0
2018-Jun-02 01:27N 10°24' W 075°32'0 0.0
2018-Jun-02 00:57N 10°24' W 075°32'0 0.0
2018-Jun-02 00:27N 10°24' W 075°32'0 0.0
2018-Jun-02 00:00N 10°24' W 075°32'0 0.0
2018-Jun-01 23:30N 10°24' W 075°32'0 0.0
2018-Jun-01 22:57N 10°24' W 075°32'0 0.0
2018-Jun-01 22:30N 10°24' W 075°32'0 0.0
2018-Jun-01 22:00N 10°24' W 075°32'0 0.0
2018-Jun-01 21:28N 10°24' W 075°32'1 2.6
2018-Jun-01 20:59N 10°23' W 075°32'4 8.9
2018-Jun-01 20:29N 10°19' W 075°35'2 3.5
2018-Jun-01 20:00N 10°19' W 075°36'3 6.1
2018-Jun-01 19:28N 10°19' W 075°40'9 1.7
2018-Jun-01 14:23N 10°23' W 075°48'5 7.0
2018-Jun-01 13:37N 10°28' W 075°45'110.8
2018-Jun-01 13:29N 10°29' W 075°45'610.7
2018-Jun-01 12:57N 10°34' W 075°41'510.9
2018-Jun-01 12:28N 10°38' W 075°39'  

Dump ship's entire track history